RPLIRPVP

Guest
Details From RPLI - LAOAG INTL
To RPVP - PUERTO PRINCESA
Flight Number -
Tags decoded
Created
Modified
Stats Distance 521 nm / 965 km
Max Altitude 0 ft / 0 m
Waypoints 6
Social Downloads 0
Likes 0
Share VATSIM

Download

Looking for another format? Having issues loading an existing format? Contact us
Advertisement - Login to hide

Notes

Requested: RPLI SAN CRK SBA LBG PR RPVP

Route

RPLI SAN SBA LBG PR RPVP

ID Type Via Altitude Latitude Longitude Leg Dist Tot Dist Heading (true) Name
O RPLI APT - 0 ft / 0 m 18.17614˚ 120.53110˚ - 0 nm - LAOAG INTL
SAN VOR - 0 ft / 0 m 16.72837˚ 120.35811˚ 87 nm 87 nm 187° / 186° SAN FERNANDO VOR
SBA VOR - 0 ft / 0 m 14.76961˚ 120.22507˚ 117 nm 205 nm 184° / 184° SUBIC BAY VOR-DME
LBG VOR - 0 ft / 0 m 13.85412˚ 120.10708˚ 55 nm 260 nm 187° / 187° LUBANG VOR-DME
PR NDB - 0 ft / 0 m 9.73708˚ 118.75376˚ 259 nm 520 nm 198° / 198° PUERTO PRINCESA NDB
O RPVP APT - 0 ft / 0 m 9.74212˚ 118.75873˚ 0 nm 520 nm 44° / 44° PUERTO PRINCESA

Altitude Profile

Advertisement - Login to hide

Weather


0- 5 10 15 20 25 30 35+ Temperature / ° C

Clouds and Precipitation
Forecast for 2017-12-14 18:00 UTC. Updated 28 minutes ago

Ground ~20,000 ft ~40,000 ft Winds

RPLI

Details ICAO RPLI (LAO)
Name LAOAG INTL
Region Philippines
Timezone Asia/Manila (UTC+8.0)
Stats Elevation 25 ft / 8 m (AMSL)
Location 18.176144° 120.531104°
Runways 1
Magnetic Variation 2.865° W

METAR

RPLI 141500Z 01002KT 9999 FEW019 BKN290 22/18 Q1011 NOSIG RMK A2985

Decode

TAF

TAF RPLI 141100Z 1412/1512 09006KT 9999 FEW019 BKN280 TEMPO 1412/1418 07011G21KT FEW019 BKN100

Decode

Departure Runways

ID Width Length Bearing (true) Bearing (mag) Surface Threshold Offset Overrun Length
01 148 ft / 45 m 9,165 ft / 2,793 m 5.37° 8.23° Concrete 1,181 ft / 360 m 1,200 ft / 366 m
19 148 ft / 45 m 9,165 ft / 2,793 m 185.37° 188.23° Concrete 0 ft / 0 m 0 ft / 0 m

RPVP

Details ICAO RPVP (PPS)
Name PUERTO PRINCESA
Region Philippines
Timezone Asia/Manila (UTC+8.0)
Stats Elevation 71 ft / 22 m (AMSL)
Location 9.742119° 118.758730°
Runways 1
Magnetic Variation 1.155° W

METAR

RPVP 141500Z 15002KT 9999 FEW019 OVC240 26/24 Q1010 RMK A2983

Decode

TAF

Not found

Destination Runways

ID Width Length Bearing (true) Bearing (mag) Surface Threshold Offset Overrun Length
09 148 ft / 45 m 8,526 ft / 2,599 m 92.52° 93.67° Concrete 0 ft / 0 m 560 ft / 171 m
27 148 ft / 45 m 8,526 ft / 2,599 m 272.52° 273.67° Concrete 0 ft / 0 m 574 ft / 175 m

Popular Alternatives